createdAt,value
2019-04-28T00:01:07.508Z,86.40
2019-04-28T00:03:36.577Z,87.30
2019-04-28T00:06:05.666Z,86.00
2019-04-28T00:08:34.830Z,84.90
2019-04-28T00:11:04.367Z,86.30
2019-04-28T00:13:33.436Z,86.10
2019-04-28T00:16:02.711Z,86.10
2019-04-28T00:18:31.839Z,85.50
2019-04-28T00:21:29.263Z,86.30
2019-04-28T00:24:17.357Z,84.40
2019-04-28T00:27:11.724Z,84.60
2019-04-28T00:29:45.867Z,83.60
2019-04-28T00:32:11.940Z,85.00
2019-04-28T00:34:41.399Z,84.50
2019-04-28T00:37:32.736Z,84.30
2019-04-28T00:40:02.206Z,83.70
2019-04-28T00:42:31.576Z,83.40
2019-04-28T00:45:01.580Z,84.00
2019-04-28T00:47:31.252Z,82.90
2019-04-28T00:50:02.119Z,84.10
2019-04-28T00:52:31.978Z,83.40
2019-04-28T00:55:01.360Z,83.60
2019-04-28T00:57:30.970Z,84.30
2019-04-28T01:00:02.207Z,84.00
2019-04-28T01:02:48.419Z,83.90
2019-04-28T01:05:21.233Z,82.90
2019-04-28T01:07:51.100Z,82.50
2019-04-28T01:10:21.967Z,82.10
2019-04-28T01:12:51.060Z,82.30
2019-04-28T01:15:29.841Z,82.30
2019-04-28T01:18:05.986Z,81.50
2019-04-28T01:20:35.058Z,81.40
2019-04-28T01:23:04.166Z,81.20
2019-04-28T01:25:33.153Z,81.50
2019-04-28T01:28:02.130Z,81.40
2019-04-28T01:30:50.070Z,80.90
2019-04-28T01:33:26.271Z,81.30
2019-04-28T01:35:55.309Z,81.40
2019-04-28T01:38:24.307Z,80.30
2019-04-28T01:40:53.289Z,80.60
2019-04-28T01:43:22.357Z,80.70
2019-04-28T01:45:51.422Z,80.70
2019-04-28T01:48:20.510Z,81.20
2019-04-28T01:50:50.062Z,81.30
2019-04-28T01:53:19.900Z,80.70
2019-04-28T01:55:49.516Z,81.20
2019-04-28T01:58:20.428Z,81.10
2019-04-28T02:00:50.529Z,81.20
2019-04-28T02:03:20.592Z,81.40
2019-04-28T02:05:50.203Z,81.60
2019-04-28T02:08:20.264Z,83.30
2019-04-28T02:10:50.144Z,81.60
2019-04-28T02:13:19.897Z,81.40
2019-04-28T02:15:50.095Z,81.30
2019-04-28T02:18:19.950Z,81.00
2019-04-28T02:20:54.547Z,81.00
2019-04-28T02:23:27.385Z,81.50
2019-04-28T02:25:56.532Z,81.90
2019-04-28T02:28:25.589Z,82.20
2019-04-28T02:30:54.690Z,82.10
2019-04-28T02:33:23.619Z,81.40
2019-04-28T02:35:52.711Z,81.40
2019-04-28T02:38:21.703Z,82.30
2019-04-28T02:40:50.758Z,82.00
2019-04-28T02:43:20.896Z,82.10
2019-04-28T02:45:53.457Z,82.40
2019-04-28T02:48:24.831Z,82.20
2019-04-28T02:51:07.175Z,81.80
2019-04-28T02:53:40.933Z,81.30
2019-04-28T02:56:11.286Z,80.70
2019-04-28T02:58:41.566Z,81.80
2019-04-28T03:01:21.456Z,81.70
2019-04-28T03:03:41.740Z,81.50
2019-04-28T03:06:10.963Z,80.90
2019-04-28T03:08:40.562Z,81.00
2019-04-28T03:11:10.662Z,81.40
2019-04-28T03:13:41.175Z,80.80
2019-04-28T03:16:10.978Z,80.40
2019-04-28T03:18:41.292Z,80.60
2019-04-28T03:21:11.490Z,79.10
2019-04-28T03:23:40.785Z,79.70
2019-04-28T03:26:31.913Z,78.90
2019-04-28T03:29:12.468Z,79.10
2019-04-28T03:32:30.734Z,78.20
2019-04-28T03:34:53.015Z,78.60
2019-04-28T03:37:23.499Z,78.10
2019-04-28T03:39:50.459Z,77.90
2019-04-28T03:42:21.535Z,77.90
2019-04-28T03:44:51.083Z,78.00
2019-04-28T03:47:21.405Z,77.80
2019-04-28T03:49:50.930Z,77.50
2019-04-28T03:52:21.326Z,77.70
2019-04-28T03:54:51.172Z,76.90
2019-04-28T03:57:21.473Z,76.70
2019-04-28T03:59:51.444Z,76.70
2019-04-28T04:02:23.692Z,77.50
2019-04-28T04:04:52.553Z,77.40
2019-04-28T04:07:22.152Z,77.00
2019-04-28T04:10:06.483Z,77.00
2019-04-28T04:13:00.996Z,77.40
2019-04-28T04:15:55.279Z,77.30
2019-04-28T04:18:33.685Z,77.80
2019-04-28T04:21:02.780Z,77.30
2019-04-28T04:23:31.846Z,77.20
2019-04-28T04:26:01.775Z,76.60
2019-04-28T04:28:31.211Z,77.40
2019-04-28T04:31:02.945Z,77.30
2019-04-28T04:33:31.294Z,77.00
2019-04-28T04:36:01.566Z,76.50
2019-04-28T04:38:31.353Z,76.80
2019-04-28T04:41:01.428Z,77.30
2019-04-28T04:43:31.313Z,77.30
2019-04-28T04:46:31.705Z,77.70
2019-04-28T04:49:01.007Z,78.10
2019-04-28T04:51:31.058Z,77.60
2019-04-28T04:54:01.127Z,76.70
2019-04-28T04:56:30.685Z,76.90
2019-04-28T04:59:02.209Z,77.20
2019-04-28T05:01:55.529Z,77.70
2019-04-28T05:04:34.612Z,77.20
2019-04-28T05:07:03.673Z,77.60
2019-04-28T05:09:32.674Z,76.90
2019-04-28T05:12:01.694Z,76.80
2019-04-28T05:14:30.699Z,77.10
2019-04-28T05:17:00.829Z,76.20
2019-04-28T05:19:30.004Z,76.30
2019-04-28T05:22:00.049Z,76.80
2019-04-28T05:24:54.386Z,76.90
2019-04-28T05:27:25.618Z,76.40
2019-04-28T05:29:56.864Z,75.50
2019-04-28T05:32:24.022Z,76.70
2019-04-28T05:34:53.059Z,76.70
2019-04-28T05:37:22.267Z,76.30
2019-04-28T05:39:52.538Z,75.40
2019-04-28T05:42:21.782Z,75.60
2019-04-28T05:44:50.780Z,76.10
2019-04-28T05:47:20.418Z,75.70
2019-04-28T05:50:00.207Z,75.30
2019-04-28T05:52:50.124Z,74.90
2019-04-28T05:55:23.485Z,75.30
2019-04-28T05:58:06.541Z,74.80
2019-04-28T06:00:57.718Z,74.70
2019-04-28T06:03:27.372Z,73.80
2019-04-28T06:05:57.132Z,74.00
2019-04-28T06:08:35.397Z,73.00
2019-04-28T06:11:23.639Z,72.90
2019-04-28T06:13:52.603Z,72.00
2019-04-28T06:16:22.142Z,70.80
2019-04-28T06:18:51.373Z,71.50
2019-04-28T06:21:20.507Z,71.80
2019-04-28T06:23:49.684Z,72.00
2019-04-28T06:26:18.672Z,72.20
2019-04-28T06:28:47.753Z,72.60
2019-04-28T06:31:16.665Z,71.50
2019-04-28T06:33:45.811Z,72.00
2019-04-28T06:36:14.815Z,70.90
2019-04-28T06:38:43.731Z,71.10
2019-04-28T06:41:12.807Z,70.30
2019-04-28T06:43:41.783Z,70.70
2019-04-28T06:46:10.956Z,72.00
2019-04-28T06:48:39.936Z,70.60
2019-04-28T06:51:08.985Z,69.60
2019-04-28T06:53:38.049Z,70.20
2019-04-28T06:56:07.119Z,70.20
2019-04-28T06:58:36.142Z,70.10
2019-04-28T07:01:05.272Z,70.40
2019-04-28T07:03:34.274Z,70.50
2019-04-28T07:06:04.270Z,70.60
2019-04-28T07:08:33.255Z,70.30
2019-04-28T07:11:02.270Z,70.10
2019-04-28T07:13:31.339Z,70.30
2019-04-28T07:16:00.352Z,71.00
2019-04-28T07:18:29.269Z,69.70
2019-04-28T07:21:23.471Z,70.60
2019-04-28T07:23:52.529Z,70.50
2019-04-28T07:26:21.585Z,70.20
2019-04-28T07:28:50.696Z,70.50
2019-04-28T07:31:21.331Z,69.30
2019-04-28T07:33:50.502Z,69.60
2019-04-28T07:36:19.627Z,69.80
2019-04-28T07:38:48.627Z,69.60
2019-04-28T07:41:17.693Z,69.60
2019-04-28T07:43:46.807Z,68.60
2019-04-28T07:46:15.883Z,69.20
2019-04-28T07:48:44.951Z,68.30
2019-04-28T07:51:13.876Z,68.40
2019-04-28T07:53:47.917Z,67.20
2019-04-28T07:56:17.055Z,66.20
2019-04-28T07:58:46.174Z,65.50
2019-04-28T08:01:15.251Z,65.40
2019-04-28T08:03:49.756Z,65.10
2019-04-28T08:06:15.101Z,64.40
2019-04-28T08:08:44.166Z,65.40
2019-04-28T08:11:13.220Z,66.40
2019-04-28T08:13:42.290Z,67.20
2019-04-28T08:16:11.346Z,63.60
2019-04-28T08:18:40.263Z,63.00
2019-04-28T08:21:09.239Z,63.80
2019-04-28T08:23:47.070Z,63.90
2019-04-28T08:26:08.798Z,63.80
2019-04-28T08:28:37.852Z,63.00
2019-04-28T08:31:07.656Z,63.40
2019-04-28T08:34:02.494Z,64.50
2019-04-28T08:36:29.276Z,64.60
2019-04-28T08:38:58.286Z,64.50
2019-04-28T08:41:27.402Z,64.40
2019-04-28T08:43:56.365Z,64.60
2019-04-28T08:46:25.357Z,63.90
2019-04-28T08:48:54.435Z,63.30
2019-04-28T08:51:23.503Z,63.90
2019-04-28T08:53:52.557Z,63.20
2019-04-28T08:56:21.563Z,62.80
2019-04-28T08:58:50.560Z,62.00
2019-04-28T09:01:19.615Z,60.90
2019-04-28T09:03:48.622Z,59.30
2019-04-28T09:06:17.698Z,58.70
2019-04-28T09:08:46.743Z,59.60
2019-04-28T09:11:15.830Z,59.40
2019-04-28T09:13:44.904Z,59.50
2019-04-28T09:16:13.889Z,60.10
2019-04-28T09:18:42.956Z,60.00
2019-04-28T09:21:12.067Z,60.10
2019-04-28T09:23:41.255Z,56.90
2019-04-28T09:26:10.313Z,58.10
2019-04-28T09:28:39.411Z,54.50
2019-04-28T09:31:08.500Z,54.90
2019-04-28T09:33:37.427Z,55.50
2019-04-28T09:36:06.435Z,55.70
2019-04-28T09:38:35.343Z,56.20
2019-04-28T09:41:04.336Z,52.80
2019-04-28T09:43:51.201Z,50.30
2019-04-28T09:46:23.411Z,52.60
2019-04-28T09:48:52.494Z,51.50
2019-04-28T09:51:21.466Z,51.80
2019-04-28T09:53:50.480Z,51.90
2019-04-28T09:56:19.539Z,52.50
2019-04-28T09:58:48.603Z,53.20
2019-04-28T10:01:17.593Z,52.70
2019-04-28T10:03:46.567Z,52.10
2019-04-28T10:06:15.675Z,53.50
2019-04-28T10:08:44.762Z,53.00
2019-04-28T10:11:13.744Z,53.10
2019-04-28T10:13:42.784Z,52.40
2019-04-28T10:16:11.898Z,52.60
2019-04-28T10:18:40.958Z,51.10
2019-04-28T10:21:10.015Z,51.50
2019-04-28T10:23:38.937Z,52.40
2019-04-28T10:26:08.015Z,52.60
2019-04-28T10:28:37.002Z,52.10
2019-04-28T10:31:07.533Z,52.50
2019-04-28T10:33:38.234Z,51.40
2019-04-28T10:36:07.359Z,50.60
2019-04-28T10:38:37.886Z,51.60
2019-04-28T10:41:20.051Z,51.80
2019-04-28T10:43:49.175Z,52.20
2019-04-28T10:46:18.171Z,51.70
2019-04-28T10:48:47.291Z,50.60
2019-04-28T10:51:16.339Z,51.20
2019-04-28T10:53:45.292Z,50.00
2019-04-28T10:56:14.268Z,49.10
2019-04-28T10:58:45.018Z,49.80
2019-04-28T11:01:14.014Z,49.70
2019-04-28T11:03:45.063Z,50.20
2019-04-28T11:06:14.079Z,50.30
2019-04-28T11:09:05.533Z,48.70
2019-04-28T11:11:34.673Z,48.50
2019-04-28T11:14:04.022Z,49.40
2019-04-28T11:16:35.996Z,47.80
2019-04-28T11:19:06.130Z,49.70
2019-04-28T11:21:35.198Z,50.40
2019-04-28T11:24:04.462Z,49.20
2019-04-28T11:26:33.623Z,49.70
2019-04-28T11:29:03.092Z,49.40
2019-04-28T11:31:32.223Z,49.60
2019-04-28T11:34:22.587Z,48.50
2019-04-28T11:36:51.515Z,47.70
2019-04-28T11:39:25.917Z,48.20
2019-04-28T11:41:55.133Z,49.40
2019-04-28T11:44:24.190Z,49.40
2019-04-28T11:46:53.334Z,47.50
2019-04-28T11:49:22.368Z,47.00
2019-04-28T11:51:51.431Z,48.00
2019-04-28T11:54:20.543Z,48.60
2019-04-28T11:56:49.677Z,48.60
2019-04-28T11:59:18.590Z,49.60
2019-04-28T12:01:47.683Z,49.00
2019-04-28T12:04:17.917Z,47.20
2019-04-28T12:06:46.968Z,45.90
2019-04-28T12:09:24.561Z,45.00
2019-04-28T12:11:54.392Z,45.00
2019-04-28T12:14:31.115Z,44.10
2019-04-28T12:17:28.269Z,44.10
2019-04-28T12:20:10.573Z,45.10
2019-04-28T12:22:39.604Z,45.70
2019-04-28T12:25:08.871Z,45.50
2019-04-28T12:27:38.044Z,45.80
2019-04-28T12:30:07.526Z,45.90
2019-04-28T12:32:36.756Z,45.20
2019-04-28T12:35:05.979Z,45.30
2019-04-28T12:37:35.216Z,46.10
2019-04-28T12:40:04.691Z,45.30
2019-04-28T12:42:33.967Z,43.60
2019-04-28T12:45:03.099Z,44.90
2019-04-28T12:47:32.223Z,45.30
2019-04-28T12:50:17.322Z,45.20
2019-04-28T12:52:46.460Z,43.40
2019-04-28T12:55:15.645Z,43.80
2019-04-28T12:57:44.678Z,42.20
2019-04-28T13:00:26.743Z,41.10
2019-04-28T13:03:13.863Z,40.80
2019-04-28T13:05:44.616Z,42.10
2019-04-28T13:08:13.815Z,41.60
2019-04-28T13:10:42.976Z,41.00
2019-04-28T13:13:12.108Z,41.10
2019-04-28T13:15:41.327Z,41.10
2019-04-28T13:18:10.403Z,42.80
2019-04-28T13:20:39.475Z,43.20
2019-04-28T13:23:08.556Z,42.60
2019-04-28T13:25:37.754Z,42.20
2019-04-28T13:28:06.909Z,42.30
2019-04-28T13:30:36.087Z,43.50
2019-04-28T13:33:05.209Z,42.10
2019-04-28T13:35:34.389Z,42.10
2019-04-28T13:38:03.455Z,40.40
2019-04-28T13:40:34.218Z,41.10
2019-04-28T13:43:03.293Z,40.60
2019-04-28T13:45:32.449Z,41.60
2019-04-28T13:48:01.605Z,41.10
2019-04-28T13:50:36.236Z,38.90
2019-04-28T13:53:06.231Z,39.10
2019-04-28T13:55:54.733Z,38.40
2019-04-28T13:58:27.388Z,38.10
2019-04-28T14:01:11.277Z,38.70
2019-04-28T14:04:02.516Z,40.10
2019-04-28T14:06:32.341Z,42.70
2019-04-28T14:09:01.429Z,46.70
2019-04-28T14:11:30.644Z,48.60
2019-04-28T14:13:59.767Z,49.50
2019-04-28T14:16:28.858Z,49.70
2019-04-28T14:18:57.943Z,49.90
2019-04-28T14:21:27.078Z,49.50
2019-04-28T14:23:56.243Z,49.40
2019-04-28T14:26:25.366Z,49.00
2019-04-28T14:28:54.448Z,49.30
2019-04-28T14:31:23.614Z,49.90
2019-04-28T14:33:52.709Z,48.70
2019-04-28T14:36:21.825Z,48.80
2019-04-28T14:38:50.941Z,47.90
2019-04-28T14:41:20.014Z,46.50
2019-04-28T14:43:49.033Z,44.00
2019-04-28T14:46:18.008Z,42.00
2019-04-28T14:48:47.089Z,42.70
2019-04-28T14:51:16.295Z,42.30
2019-04-28T14:53:45.246Z,41.30
2019-04-28T14:56:14.403Z,41.30
2019-04-28T14:58:43.417Z,40.60
2019-04-28T15:01:31.546Z,40.90
2019-04-28T15:04:02.806Z,42.40
2019-04-28T15:06:37.824Z,44.00
2019-04-28T15:09:26.782Z,43.50
2019-04-28T15:12:02.103Z,43.40
2019-04-28T15:14:31.120Z,43.50
2019-04-28T15:17:00.233Z,44.00
2019-04-28T15:19:29.201Z,44.20
2019-04-28T15:21:58.261Z,42.60
2019-04-28T15:24:27.399Z,42.30
2019-04-28T15:26:56.395Z,42.40
2019-04-28T15:29:25.397Z,42.70
2019-04-28T15:31:54.397Z,43.00
2019-04-28T15:34:23.501Z,43.20
2019-04-28T15:36:52.699Z,42.90
2019-04-28T15:39:21.674Z,44.30
2019-04-28T15:41:50.628Z,44.60
2019-04-28T15:44:19.676Z,45.70
2019-04-28T15:46:48.734Z,46.40
2019-04-28T15:49:17.678Z,46.70
2019-04-28T15:51:46.658Z,46.70
2019-04-28T15:54:15.685Z,46.90
2019-04-28T15:56:48.954Z,49.10
2019-04-28T15:59:18.918Z,51.30
2019-04-28T16:01:47.990Z,51.90
2019-04-28T16:04:18.485Z,52.40
2019-04-28T16:06:47.750Z,52.60
2019-04-28T16:09:16.742Z,52.90
2019-04-28T16:11:45.851Z,53.00
2019-04-28T16:14:14.858Z,53.50
2019-04-28T16:16:43.947Z,53.00
2019-04-28T16:19:13.101Z,52.50
2019-04-28T16:21:42.201Z,52.50
2019-04-28T16:24:11.250Z,52.60
2019-04-28T16:26:40.292Z,53.00
2019-04-28T16:29:09.354Z,53.30
2019-04-28T16:31:38.387Z,53.50
2019-04-28T16:34:07.373Z,53.80
2019-04-28T16:36:36.331Z,54.10
2019-04-28T16:39:09.352Z,54.30
2019-04-28T16:41:39.906Z,54.10
2019-04-28T16:44:11.190Z,54.00
2019-04-28T16:46:40.253Z,54.20
2019-04-28T16:49:09.338Z,54.70
2019-04-28T16:51:38.382Z,54.50
2019-04-28T16:54:07.489Z,54.40
2019-04-28T16:56:42.838Z,54.30
2019-04-28T16:59:34.174Z,54.60
2019-04-28T17:02:14.060Z,54.50
2019-04-28T17:04:43.015Z,54.40
2019-04-28T17:07:12.270Z,53.60
2019-04-28T17:09:41.184Z,53.50
2019-04-28T17:12:10.394Z,53.60
2019-04-28T17:14:39.519Z,54.10
2019-04-28T17:17:08.696Z,54.40
2019-04-28T17:19:37.847Z,54.70
2019-04-28T17:22:07.049Z,54.10
2019-04-28T17:24:36.113Z,53.70
2019-04-28T17:27:05.226Z,53.30
2019-04-28T17:29:34.290Z,52.90
2019-04-28T17:32:03.312Z,53.30
2019-04-28T17:34:32.488Z,53.40
2019-04-28T17:37:01.652Z,53.30
2019-04-28T17:39:31.773Z,53.00
2019-04-28T17:42:00.706Z,52.70
2019-04-28T17:44:29.910Z,53.30
2019-04-28T17:46:59.099Z,53.50
2019-04-28T17:49:33.458Z,53.30
2019-04-28T17:52:02.676Z,53.00
2019-04-28T17:54:31.817Z,53.40
2019-04-28T17:57:01.055Z,53.40
2019-04-28T17:59:30.059Z,53.50
2019-04-28T18:02:17.282Z,53.60
2019-04-28T18:05:05.583Z,53.00
2019-04-28T18:07:36.724Z,53.20
2019-04-28T18:10:07.918Z,53.30
2019-04-28T18:12:37.100Z,53.00
2019-04-28T18:15:18.227Z,53.00
2019-04-28T18:18:04.172Z,53.20
2019-04-28T18:20:33.327Z,53.10
2019-04-28T18:23:02.395Z,53.40
2019-04-28T18:25:31.473Z,53.40
2019-04-28T18:28:00.627Z,53.40
2019-04-28T18:30:32.303Z,54.00
2019-04-28T18:33:20.525Z,54.60
2019-04-28T18:35:52.885Z,55.60
2019-04-28T18:38:35.077Z,59.40
2019-04-28T18:41:12.118Z,62.10
2019-04-28T18:44:00.198Z,63.60
2019-04-28T18:46:30.462Z,65.30
2019-04-28T18:48:59.478Z,66.50
2019-04-28T18:51:28.602Z,66.50
2019-04-28T18:53:57.692Z,66.90
2019-04-28T18:56:26.785Z,67.00
2019-04-28T18:58:55.819Z,67.50
2019-04-28T19:01:32.617Z,67.60
2019-04-28T19:04:01.734Z,67.40
2019-04-28T19:06:30.829Z,67.60
2019-04-28T19:09:06.507Z,67.70
2019-04-28T19:11:48.383Z,67.80
2019-04-28T19:14:21.323Z,67.40
2019-04-28T19:17:12.477Z,67.40
2019-04-28T19:19:42.184Z,67.10
2019-04-28T19:22:11.207Z,67.50
2019-04-28T19:24:40.369Z,67.80
2019-04-28T19:27:09.319Z,67.70
2019-04-28T19:29:38.427Z,67.60
2019-04-28T19:32:07.592Z,66.80
2019-04-28T19:34:36.660Z,67.10
2019-04-28T19:37:05.969Z,66.80
2019-04-28T19:39:35.227Z,67.70
2019-04-28T19:42:04.601Z,68.20
2019-04-28T19:44:33.711Z,68.20
2019-04-28T19:47:02.819Z,68.10
2019-04-28T19:49:31.803Z,68.40
2019-04-28T19:52:00.895Z,68.10
2019-04-28T19:54:33.786Z,68.70
2019-04-28T19:57:21.927Z,68.90
2019-04-28T20:00:09.025Z,68.80
2019-04-28T20:02:38.231Z,69.10
2019-04-28T20:05:07.372Z,69.20
2019-04-28T20:07:36.515Z,69.10
2019-04-28T20:10:06.132Z,68.90
2019-04-28T20:12:35.191Z,69.60
2019-04-28T20:15:04.787Z,69.60
2019-04-28T20:17:33.847Z,69.60
2019-04-28T20:20:02.930Z,70.00
2019-04-28T20:22:32.282Z,69.80
2019-04-28T20:25:01.291Z,70.00
2019-04-28T20:27:30.424Z,70.00
2019-04-28T20:29:59.612Z,69.80
2019-04-28T20:32:30.267Z,70.30
2019-04-28T20:34:59.255Z,69.60
2019-04-28T20:37:33.104Z,69.70
2019-04-28T20:40:06.487Z,69.60
2019-04-28T20:42:42.922Z,69.80
2019-04-28T20:45:13.801Z,69.20
2019-04-28T20:47:42.956Z,68.40
2019-04-28T20:50:12.292Z,68.20
2019-04-28T20:52:41.313Z,68.50
2019-04-28T20:55:10.499Z,68.70
2019-04-28T20:57:39.526Z,68.30
2019-04-28T21:00:09.744Z,68.40
2019-04-28T21:02:38.724Z,68.30
2019-04-28T21:05:07.812Z,68.60
2019-04-28T21:07:36.875Z,68.60
2019-04-28T21:10:06.283Z,69.00
2019-04-28T21:12:35.423Z,68.70
2019-04-28T21:15:04.925Z,68.50
2019-04-28T21:17:33.947Z,68.20
2019-04-28T21:20:03.026Z,68.20
2019-04-28T21:22:32.050Z,68.20
2019-04-28T21:25:01.079Z,68.80
2019-04-28T21:27:30.203Z,68.20
2019-04-28T21:29:59.122Z,67.70
2019-04-28T21:32:28.219Z,67.70
2019-04-28T21:34:57.237Z,67.50
2019-04-28T21:37:26.322Z,67.80
2019-04-28T21:39:55.376Z,68.10
2019-04-28T21:42:26.755Z,67.80
2019-04-28T21:45:16.430Z,67.60
2019-04-28T21:47:45.607Z,67.40
2019-04-28T21:50:14.661Z,67.70
2019-04-28T21:52:43.683Z,67.80
2019-04-28T21:55:12.780Z,68.20
2019-04-28T21:57:41.783Z,68.10
2019-04-28T22:00:14.165Z,68.60
2019-04-28T22:02:43.255Z,69.50
2019-04-28T22:05:12.431Z,69.30
2019-04-28T22:07:41.347Z,69.30
2019-04-28T22:10:10.527Z,69.40
2019-04-28T22:12:39.695Z,69.60
2019-04-28T22:15:08.852Z,69.60
2019-04-28T22:17:37.872Z,69.70
2019-04-28T22:20:07.428Z,69.70
2019-04-28T22:22:36.482Z,69.90
2019-04-28T22:25:11.203Z,69.70
2019-04-28T22:27:41.857Z,69.40
2019-04-28T22:30:12.304Z,69.50
2019-04-28T22:32:41.368Z,69.70
2019-04-28T22:35:10.677Z,70.30
2019-04-28T22:37:39.755Z,70.10
2019-04-28T22:40:08.799Z,71.10
2019-04-28T22:42:37.811Z,71.10
2019-04-28T22:45:07.175Z,71.20
2019-04-28T22:47:36.109Z,71.60
2019-04-28T22:50:07.159Z,71.80
2019-04-28T22:52:36.224Z,71.90
2019-04-28T22:55:13.627Z,72.00
2019-04-28T22:58:00.320Z,71.50
2019-04-28T23:00:54.789Z,71.80
2019-04-28T23:03:29.977Z,71.90
2019-04-28T23:05:59.021Z,72.10
2019-04-28T23:08:28.013Z,71.80
2019-04-28T23:10:56.989Z,71.60
2019-04-28T23:13:25.904Z,71.80
2019-04-28T23:15:54.966Z,71.50
2019-04-28T23:18:24.162Z,71.90
2019-04-28T23:20:56.500Z,72.50
2019-04-28T23:23:25.555Z,73.10
2019-04-28T23:25:54.601Z,72.70
2019-04-28T23:28:23.679Z,72.50
2019-04-28T23:30:52.745Z,72.50
2019-04-28T23:33:21.904Z,72.40
2019-04-28T23:35:50.981Z,72.40
2019-04-28T23:38:19.962Z,72.50
2019-04-28T23:41:08.017Z,72.40
2019-04-28T23:43:37.249Z,72.50
2019-04-28T23:46:06.375Z,73.20
2019-04-28T23:48:35.566Z,73.60
2019-04-28T23:51:18.482Z,74.00
2019-04-28T23:53:59.021Z,73.70
2019-04-28T23:56:28.088Z,73.80
2019-04-28T23:58:57.058Z,73.40
